createdAt,value
2023-01-17T00:01:30.831Z,2.18
2023-01-17T00:03:57.670Z,1.61
2023-01-17T00:06:27.795Z,1.73
2023-01-17T00:08:57.293Z,1.80
2023-01-17T00:11:24.332Z,2.02
2023-01-17T00:13:51.403Z,1.88
2023-01-17T00:16:18.180Z,1.67
2023-01-17T00:18:48.040Z,1.61
2023-01-17T00:21:15.062Z,1.96
2023-01-17T00:23:41.813Z,2.38
2023-01-17T00:26:16.798Z,2.47
2023-01-17T00:28:44.001Z,2.49
2023-01-17T00:31:13.278Z,3.20
2023-01-17T00:33:40.442Z,2.26
2023-01-17T00:36:08.600Z,2.89
2023-01-17T00:38:36.835Z,3.24
2023-01-17T00:41:07.759Z,3.04
2023-01-17T00:43:37.468Z,1.85
2023-01-17T00:46:04.641Z,2.52
2023-01-17T00:48:31.403Z,2.39
2023-01-17T00:50:58.221Z,1.26
2023-01-17T00:53:24.974Z,2.03
2023-01-17T00:55:52.405Z,1.73
2023-01-17T00:58:21.872Z,1.50
2023-01-17T01:00:49.119Z,0.81
2023-01-17T01:03:15.988Z,0.86
2023-01-17T01:05:45.500Z,0.27
2023-01-17T01:08:26.449Z,0.61
2023-01-17T01:10:53.555Z,1.00
2023-01-17T01:13:23.827Z,0.79
2023-01-17T01:15:50.995Z,0.96
2023-01-17T01:18:19.056Z,1.19
2023-01-17T01:20:46.041Z,0.73
2023-01-17T01:23:13.792Z,0.56
2023-01-17T01:25:40.508Z,1.01
2023-01-17T01:28:12.565Z,1.22
2023-01-17T01:30:39.304Z,0.95
2023-01-17T01:33:13.064Z,1.01
2023-01-17T01:35:39.913Z,1.03
2023-01-17T01:38:06.909Z,1.12
2023-01-17T01:40:33.919Z,0.80
2023-01-17T01:43:00.932Z,1.93
2023-01-17T01:45:30.338Z,2.56
2023-01-17T01:48:45.261Z,2.17
2023-01-17T01:51:15.536Z,2.88
2023-01-17T01:53:43.387Z,2.26
2023-01-17T01:56:11.518Z,1.99
2023-01-17T01:58:38.657Z,2.16
2023-01-17T02:01:06.013Z,2.34
2023-01-17T02:03:32.846Z,2.31
2023-01-17T02:06:22.320Z,2.14
2023-01-17T02:08:50.289Z,2.37
2023-01-17T02:11:17.624Z,1.17
2023-01-17T02:13:44.734Z,1.72
2023-01-17T02:16:17.674Z,1.68
2023-01-17T02:19:27.008Z,2.17
2023-01-17T02:22:22.419Z,2.28
2023-01-17T02:25:10.120Z,1.52
2023-01-17T02:28:15.176Z,1.21
2023-01-17T02:30:43.082Z,1.13
2023-01-17T02:33:27.508Z,0.69
2023-01-17T02:36:18.416Z,0.43
2023-01-17T02:39:10.770Z,0.42
2023-01-17T02:41:39.295Z,0.40
2023-01-17T02:44:08.156Z,0.17
2023-01-17T02:46:53.220Z,0.75
2023-01-17T02:49:21.749Z,0.02
2023-01-17T02:52:00.617Z,-0.02
2023-01-17T02:54:51.848Z,0.73
2023-01-17T02:57:48.356Z,1.22
2023-01-17T03:00:39.012Z,0.22
2023-01-17T03:03:40.440Z,-0.05
2023-01-17T03:06:18.004Z,0.00
2023-01-17T03:08:45.864Z,0.18
2023-01-17T03:11:13.931Z,-0.07
2023-01-17T03:13:40.786Z,-0.05
2023-01-17T03:16:31.165Z,-0.14
2023-01-17T03:18:57.897Z,0.01
2023-01-17T03:21:24.599Z,-0.17
2023-01-17T03:23:52.459Z,-0.20
2023-01-17T03:26:21.730Z,-0.28
2023-01-17T03:28:48.740Z,-0.27
2023-01-17T03:31:16.494Z,-0.32
2023-01-17T03:33:43.592Z,-0.40
2023-01-17T03:36:10.723Z,-0.46
2023-01-17T03:38:37.507Z,-0.27
2023-01-17T03:41:04.671Z,0.28
2023-01-17T03:43:31.397Z,-0.11
2023-01-17T03:46:05.806Z,-0.15
2023-01-17T03:48:32.925Z,-0.26
2023-01-17T03:51:00.629Z,-0.28
2023-01-17T03:53:27.635Z,-0.29
2023-01-17T03:55:57.079Z,-0.18
2023-01-17T03:58:24.130Z,-0.11
2023-01-17T04:00:51.256Z,0.24
2023-01-17T04:03:20.896Z,1.05
2023-01-17T04:05:50.608Z,0.43
2023-01-17T04:08:18.742Z,1.28
2023-01-17T04:10:45.560Z,2.12
2023-01-17T04:13:14.990Z,2.57
2023-01-17T04:15:42.176Z,1.02
2023-01-17T04:18:10.501Z,0.54
2023-01-17T04:20:38.697Z,0.86
2023-01-17T04:23:05.726Z,1.70
2023-01-17T04:25:33.488Z,2.24
2023-01-17T04:28:02.377Z,2.39
2023-01-17T04:30:32.069Z,1.39
2023-01-17T04:33:01.628Z,0.68
2023-01-17T04:35:30.430Z,0.28
2023-01-17T04:37:58.221Z,0.14
2023-01-17T04:40:24.917Z,0.07
2023-01-17T04:42:51.917Z,0.13
2023-01-17T04:45:18.867Z,0.00
2023-01-17T04:47:45.920Z,-0.03
2023-01-17T04:50:13.607Z,-0.14
2023-01-17T04:52:41.004Z,-0.14
2023-01-17T04:55:09.056Z,-0.08
2023-01-17T04:57:38.914Z,-0.05
2023-01-17T05:00:08.688Z,-0.10
2023-01-17T05:02:35.991Z,0.06
2023-01-17T05:05:02.692Z,0.18
2023-01-17T05:07:29.725Z,0.27
2023-01-17T05:09:59.393Z,0.61
2023-01-17T05:12:26.888Z,0.63
2023-01-17T05:14:54.054Z,0.54
2023-01-17T05:17:21.115Z,0.80
2023-01-17T05:19:48.123Z,1.32
2023-01-17T05:22:15.435Z,2.20
2023-01-17T05:24:48.296Z,2.56
2023-01-17T05:27:15.182Z,2.02
2023-01-17T05:29:42.156Z,2.19
2023-01-17T05:32:09.226Z,1.10
2023-01-17T05:34:36.368Z,0.99
2023-01-17T05:37:04.123Z,1.00
2023-01-17T05:39:31.499Z,0.72
2023-01-17T05:41:59.241Z,0.68
2023-01-17T05:44:26.341Z,0.53
2023-01-17T05:46:54.942Z,0.50
2023-01-17T05:49:21.680Z,0.35
2023-01-17T05:51:49.675Z,0.41
2023-01-17T05:54:16.425Z,0.56
2023-01-17T05:56:43.421Z,0.66
2023-01-17T05:59:13.197Z,1.18
2023-01-17T06:01:41.173Z,1.91
2023-01-17T06:04:13.221Z,1.72
2023-01-17T06:06:40.261Z,1.15
2023-01-17T06:09:07.245Z,0.85
2023-01-17T06:11:34.290Z,0.72
2023-01-17T06:14:01.302Z,0.73
2023-01-17T06:16:28.365Z,0.81
2023-01-17T06:18:56.460Z,0.73
2023-01-17T06:21:23.477Z,1.31
2023-01-17T06:23:50.237Z,1.16
2023-01-17T06:26:19.823Z,1.31
2023-01-17T06:28:46.820Z,1.63
2023-01-17T06:31:14.782Z,1.44
2023-01-17T06:33:41.789Z,1.23
2023-01-17T06:36:09.302Z,1.95
2023-01-17T06:38:36.421Z,2.13
2023-01-17T06:41:07.505Z,2.94
2023-01-17T06:43:34.738Z,2.91
2023-01-17T06:46:01.645Z,3.25
2023-01-17T06:48:31.109Z,1.55
2023-01-17T06:50:57.975Z,1.31
2023-01-17T06:53:24.986Z,1.00
2023-01-17T06:55:52.017Z,1.36
2023-01-17T06:58:21.740Z,1.53
2023-01-17T07:00:53.595Z,1.11
2023-01-17T07:03:25.259Z,1.00
2023-01-17T07:05:52.390Z,1.53
2023-01-17T07:08:20.947Z,1.50
2023-01-17T07:10:48.110Z,0.99
2023-01-17T07:13:14.858Z,1.00
2023-01-17T07:15:41.941Z,0.59
2023-01-17T07:18:09.506Z,0.46
2023-01-17T07:20:36.531Z,0.34
2023-01-17T07:23:03.682Z,0.12
2023-01-17T07:25:33.498Z,0.14
2023-01-17T07:28:00.765Z,0.15
2023-01-17T07:30:27.526Z,0.15
2023-01-17T07:32:57.031Z,0.26
2023-01-17T07:35:24.124Z,0.22
2023-01-17T07:37:53.996Z,0.54
2023-01-17T07:40:21.076Z,0.65
2023-01-17T07:42:48.000Z,0.73
2023-01-17T07:45:16.732Z,0.80
2023-01-17T07:47:43.944Z,1.27
2023-01-17T07:50:13.456Z,1.11
2023-01-17T07:52:41.709Z,1.09
2023-01-17T07:55:11.780Z,1.82
2023-01-17T07:57:38.533Z,2.04
2023-01-17T08:00:07.344Z,2.18
2023-01-17T08:02:34.923Z,2.67
2023-01-17T08:05:02.684Z,2.94
2023-01-17T08:07:29.733Z,3.03
2023-01-17T08:09:56.791Z,3.42
2023-01-17T08:12:24.579Z,3.41
2023-01-17T08:14:52.061Z,2.35
2023-01-17T08:17:19.504Z,2.99
2023-01-17T08:19:48.905Z,1.98
2023-01-17T08:22:16.841Z,1.35
2023-01-17T08:24:43.966Z,1.17
2023-01-17T08:27:10.705Z,1.97
2023-01-17T08:29:37.792Z,2.37
2023-01-17T08:32:07.365Z,2.72
2023-01-17T08:34:34.332Z,2.81
2023-01-17T08:37:01.431Z,2.22
2023-01-17T08:39:28.477Z,1.66
2023-01-17T08:41:55.484Z,1.83
2023-01-17T08:44:22.457Z,2.47
2023-01-17T08:46:49.341Z,2.93
2023-01-17T08:49:16.489Z,2.83
2023-01-17T08:51:46.001Z,3.19
2023-01-17T08:54:15.621Z,3.62
2023-01-17T08:56:47.349Z,3.24
2023-01-17T08:59:14.311Z,3.25
2023-01-17T09:01:41.185Z,3.76
2023-01-17T09:04:08.912Z,3.79
2023-01-17T09:06:39.635Z,4.43
2023-01-17T09:09:06.529Z,4.97
2023-01-17T09:11:33.262Z,5.45
2023-01-17T09:14:00.349Z,5.29
2023-01-17T09:16:27.751Z,5.04
2023-01-17T09:18:57.741Z,2.42
2023-01-17T09:21:24.820Z,1.86
2023-01-17T09:23:51.713Z,1.49
2023-01-17T09:26:20.584Z,2.13
2023-01-17T09:28:47.512Z,1.77
2023-01-17T09:31:17.230Z,2.59
2023-01-17T09:33:44.501Z,2.57
2023-01-17T09:36:11.676Z,3.04
2023-01-17T09:38:38.949Z,2.43
2023-01-17T09:41:30.174Z,1.70
2023-01-17T09:43:59.473Z,1.95
2023-01-17T09:46:29.081Z,1.49
2023-01-17T09:49:34.276Z,1.29
2023-01-17T09:52:03.157Z,1.92
2023-01-17T09:54:38.643Z,2.66
2023-01-17T09:57:43.174Z,2.56
2023-01-17T10:00:32.564Z,1.44
2023-01-17T10:03:46.266Z,2.04
2023-01-17T10:06:36.266Z,1.91
2023-01-17T10:09:23.941Z,2.16
2023-01-17T10:12:19.806Z,1.67
2023-01-17T10:14:54.205Z,1.78
2023-01-17T10:18:11.360Z,1.91
2023-01-17T10:21:11.369Z,2.08
2023-01-17T10:24:05.537Z,2.33
2023-01-17T10:26:32.607Z,2.04
2023-01-17T10:29:08.664Z,2.41
2023-01-17T10:31:43.030Z,2.00
2023-01-17T10:34:19.045Z,2.20
2023-01-17T10:36:49.029Z,2.06
2023-01-17T10:39:23.462Z,2.51
2023-01-17T10:41:54.893Z,2.55
2023-01-17T10:44:41.107Z,2.64
2023-01-17T10:47:20.693Z,2.64
2023-01-17T10:49:54.192Z,3.05
2023-01-17T10:52:45.058Z,2.99
2023-01-17T10:55:33.254Z,3.26
2023-01-17T10:58:00.316Z,2.89
2023-01-17T11:01:05.003Z,3.02
2023-01-17T11:03:33.637Z,2.29
2023-01-17T11:06:29.482Z,2.05
2023-01-17T11:08:57.601Z,2.73
2023-01-17T11:11:45.301Z,2.20
2023-01-17T11:14:22.709Z,1.95
2023-01-17T11:17:03.213Z,2.24
2023-01-17T11:19:36.695Z,2.60
2023-01-17T11:22:05.104Z,2.32
2023-01-17T11:24:37.229Z,2.49
2023-01-17T11:27:05.241Z,1.96
2023-01-17T11:29:35.805Z,2.23
2023-01-17T11:32:31.266Z,2.61
2023-01-17T11:35:23.643Z,2.95
2023-01-17T11:37:57.718Z,2.28
2023-01-17T11:40:46.464Z,2.69
2023-01-17T11:43:25.730Z,3.04
2023-01-17T11:46:06.411Z,3.09
2023-01-17T11:48:36.407Z,2.60
2023-01-17T11:51:04.082Z,2.55
2023-01-17T11:53:36.535Z,3.00
2023-01-17T11:56:32.228Z,2.16
2023-01-17T11:59:28.884Z,2.79
2023-01-17T12:02:43.097Z,2.77
2023-01-17T12:05:36.960Z,3.02
2023-01-17T12:08:36.552Z,2.83
2023-01-17T12:11:32.596Z,3.39
2023-01-17T12:14:30.047Z,3.15
2023-01-17T12:17:08.863Z,2.88
2023-01-17T12:19:53.733Z,1.99
2023-01-17T12:22:23.031Z,1.87
2023-01-17T12:24:57.885Z,2.04
2023-01-17T12:28:02.200Z,2.06
2023-01-17T12:30:58.070Z,2.16
2023-01-17T12:33:38.966Z,1.99
2023-01-17T12:36:13.871Z,2.11
2023-01-17T12:38:41.788Z,2.13
2023-01-17T12:41:29.008Z,2.81
2023-01-17T12:43:57.713Z,3.02
2023-01-17T12:46:36.290Z,3.39
2023-01-17T12:49:10.517Z,1.93
2023-01-17T12:51:38.723Z,2.89
2023-01-17T12:54:29.385Z,3.06
2023-01-17T12:57:02.219Z,2.85
2023-01-17T12:59:52.461Z,2.58
2023-01-17T13:02:53.073Z,3.18
2023-01-17T13:05:47.321Z,3.52
2023-01-17T13:08:33.015Z,3.72
2023-01-17T13:11:04.532Z,3.74
2023-01-17T13:13:31.296Z,3.98
2023-01-17T13:16:01.981Z,3.83
2023-01-17T13:18:28.922Z,4.06
2023-01-17T13:21:22.551Z,4.23
2023-01-17T13:24:36.885Z,3.84
2023-01-17T13:27:30.767Z,3.65
2023-01-17T13:30:27.501Z,2.39
2023-01-17T13:33:19.863Z,3.17
2023-01-17T13:35:56.512Z,3.04
2023-01-17T13:39:03.063Z,3.48
2023-01-17T13:41:50.498Z,3.42
2023-01-17T13:44:17.222Z,3.49
2023-01-17T13:47:04.390Z,1.96
2023-01-17T13:49:31.430Z,2.12
2023-01-17T13:52:19.860Z,2.52
2023-01-17T13:54:50.960Z,1.09
2023-01-17T13:57:38.796Z,0.84
2023-01-17T14:00:14.476Z,1.06
2023-01-17T14:02:42.410Z,0.93
2023-01-17T14:05:16.274Z,1.20
2023-01-17T14:08:09.977Z,1.54
2023-01-17T14:10:45.987Z,1.60
2023-01-17T14:14:03.129Z,2.14
2023-01-17T14:16:32.769Z,3.09
2023-01-17T14:19:00.730Z,2.65
2023-01-17T14:21:29.267Z,2.76
2023-01-17T14:24:06.172Z,2.39
2023-01-17T14:26:37.245Z,2.70
2023-01-17T14:29:45.668Z,2.09
2023-01-17T14:32:14.699Z,2.51
2023-01-17T14:34:43.481Z,1.84
2023-01-17T14:37:23.638Z,2.22
2023-01-17T14:39:50.925Z,1.66
2023-01-17T14:42:19.748Z,1.55
2023-01-17T14:44:48.369Z,1.60
2023-01-17T14:47:17.852Z,1.51
2023-01-17T14:49:45.030Z,1.50
2023-01-17T14:52:16.989Z,1.68
2023-01-17T14:55:18.743Z,1.34
2023-01-17T14:58:00.034Z,1.69
2023-01-17T15:00:42.969Z,1.31
2023-01-17T15:03:11.586Z,1.31
2023-01-17T15:05:40.444Z,1.34
2023-01-17T15:08:13.292Z,1.57
2023-01-17T15:10:48.624Z,2.28
2023-01-17T15:13:16.516Z,2.74
2023-01-17T15:15:44.477Z,2.26
2023-01-17T15:18:14.136Z,2.64
2023-01-17T15:20:54.906Z,3.31
2023-01-17T15:23:25.371Z,2.79
2023-01-17T15:25:52.895Z,2.83
2023-01-17T15:28:20.907Z,2.93
2023-01-17T15:31:37.053Z,3.03
2023-01-17T15:34:06.309Z,2.85
2023-01-17T15:36:52.876Z,2.68
2023-01-17T15:39:24.124Z,2.31
2023-01-17T15:41:52.097Z,2.64
2023-01-17T15:44:46.831Z,2.55
2023-01-17T15:47:35.404Z,2.06
2023-01-17T15:50:03.619Z,2.03
2023-01-17T15:52:30.821Z,1.87
2023-01-17T15:55:11.966Z,1.80
2023-01-17T15:57:44.867Z,1.63
2023-01-17T16:00:15.462Z,1.47
2023-01-17T16:03:34.280Z,1.11
2023-01-17T16:06:01.061Z,1.40
2023-01-17T16:08:38.710Z,1.27
2023-01-17T16:11:07.649Z,0.97
2023-01-17T16:13:40.240Z,0.90
2023-01-17T16:16:22.388Z,0.96
2023-01-17T16:19:08.243Z,0.83
2023-01-17T16:21:35.546Z,0.93
2023-01-17T16:24:02.770Z,1.08
2023-01-17T16:26:29.847Z,1.45
2023-01-17T16:28:56.544Z,1.55
2023-01-17T16:31:23.513Z,1.12
2023-01-17T16:33:52.116Z,0.87
2023-01-17T16:36:18.857Z,1.27
2023-01-17T16:38:48.971Z,1.37
2023-01-17T16:41:48.870Z,1.69
2023-01-17T16:44:15.865Z,1.62
2023-01-17T16:46:43.256Z,2.01
2023-01-17T16:49:10.051Z,1.99
2023-01-17T16:51:37.829Z,1.72
2023-01-17T16:54:04.889Z,2.43
2023-01-17T16:56:32.122Z,2.22
2023-01-17T16:58:59.206Z,2.70
2023-01-17T17:01:26.336Z,2.36
2023-01-17T17:03:53.430Z,1.98
2023-01-17T17:06:21.442Z,2.56
2023-01-17T17:08:48.577Z,2.43
2023-01-17T17:11:18.177Z,1.35
2023-01-17T17:13:45.732Z,1.94
2023-01-17T17:16:20.347Z,2.23
2023-01-17T17:18:53.525Z,2.77
2023-01-17T17:21:20.378Z,2.06
2023-01-17T17:23:47.349Z,1.45
2023-01-17T17:26:14.407Z,1.75
2023-01-17T17:28:41.448Z,1.54
2023-01-17T17:31:08.981Z,1.75
2023-01-17T17:33:38.832Z,1.89
2023-01-17T17:36:07.362Z,2.45
2023-01-17T17:38:34.085Z,2.52
2023-01-17T17:41:05.438Z,2.16
2023-01-17T17:43:38.501Z,2.32
2023-01-17T17:46:05.264Z,1.51
2023-01-17T17:48:31.952Z,1.60
2023-01-17T17:50:59.809Z,1.79
2023-01-17T17:53:29.434Z,2.10
2023-01-17T17:55:58.380Z,2.60
2023-01-17T17:58:25.517Z,2.62
2023-01-17T18:00:54.539Z,1.85
2023-01-17T18:03:21.625Z,2.21
2023-01-17T18:05:48.367Z,2.15
2023-01-17T18:08:15.385Z,1.99
2023-01-17T18:10:42.817Z,1.56
2023-01-17T18:13:10.893Z,1.70
2023-01-17T18:15:37.795Z,2.15
2023-01-17T18:18:05.810Z,1.96
2023-01-17T18:20:35.353Z,2.05
2023-01-17T18:23:02.253Z,2.08
2023-01-17T18:25:28.948Z,2.46
2023-01-17T18:27:58.137Z,2.95
2023-01-17T18:30:25.260Z,2.50
2023-01-17T18:32:52.308Z,2.64
2023-01-17T18:35:19.380Z,2.25
2023-01-17T18:37:46.067Z,2.60
2023-01-17T18:40:17.275Z,2.48
2023-01-17T18:42:44.341Z,1.75
2023-01-17T18:45:12.268Z,1.49
2023-01-17T18:47:40.130Z,1.63
2023-01-17T18:50:07.438Z,1.48
2023-01-17T18:52:35.384Z,1.71
2023-01-17T18:55:02.552Z,1.82
2023-01-17T18:57:29.484Z,1.82
2023-01-17T18:59:56.567Z,2.08
2023-01-17T19:02:23.425Z,2.25
2023-01-17T19:04:51.141Z,2.16
2023-01-17T19:07:23.995Z,2.13
2023-01-17T19:09:50.709Z,2.00
2023-01-17T19:12:19.040Z,2.20
2023-01-17T19:14:47.401Z,2.49
2023-01-17T19:17:14.562Z,1.66
2023-01-17T19:20:02.912Z,1.61
2023-01-17T19:22:50.102Z,1.69
2023-01-17T19:25:17.152Z,1.75
2023-01-17T19:27:43.968Z,2.14
2023-01-17T19:30:12.370Z,2.07
2023-01-17T19:32:39.450Z,1.94
2023-01-17T19:35:06.489Z,1.92
2023-01-17T19:39:12.708Z,1.57
2023-01-17T19:40:45.645Z,1.50
2023-01-17T19:43:25.383Z,1.80
2023-01-17T19:45:58.535Z,1.72
2023-01-17T19:48:26.238Z,1.62
2023-01-17T19:51:21.001Z,1.58
2023-01-17T19:53:49.010Z,1.11
2023-01-17T19:56:19.987Z,0.99
2023-01-17T19:58:47.397Z,1.09
2023-01-17T20:01:32.175Z,0.97
2023-01-17T20:04:01.422Z,1.04
2023-01-17T20:06:30.282Z,1.00
2023-01-17T20:08:57.247Z,0.79
2023-01-17T20:11:27.473Z,1.48
2023-01-17T20:13:55.468Z,1.88
2023-01-17T20:16:26.121Z,1.84
2023-01-17T20:18:53.528Z,1.80
2023-01-17T20:21:25.273Z,2.10
2023-01-17T20:23:53.327Z,2.15
2023-01-17T20:26:24.484Z,2.25
2023-01-17T20:28:51.935Z,2.02
2023-01-17T20:31:23.171Z,2.03
2023-01-17T20:33:51.203Z,1.94
2023-01-17T20:36:18.709Z,1.94
2023-01-17T20:38:45.478Z,2.26
2023-01-17T20:41:38.859Z,2.58
2023-01-17T20:44:07.035Z,2.88
2023-01-17T20:46:35.835Z,2.72
2023-01-17T20:49:07.299Z,2.86
2023-01-17T20:51:34.387Z,3.24
2023-01-17T20:54:02.498Z,2.43
2023-01-17T20:56:29.526Z,2.90
2023-01-17T20:58:57.443Z,3.54
2023-01-17T21:01:25.221Z,3.63
2023-01-17T21:03:52.142Z,2.66
2023-01-17T21:06:20.264Z,3.11
2023-01-17T21:08:50.436Z,2.31
2023-01-17T21:11:19.237Z,1.87
2023-01-17T21:13:46.061Z,2.28
2023-01-17T21:16:14.515Z,1.96
2023-01-17T21:18:41.422Z,1.75
2023-01-17T21:21:10.630Z,1.54
2023-01-17T21:23:38.164Z,2.11
2023-01-17T21:26:05.829Z,2.34
2023-01-17T21:28:39.529Z,2.30
2023-01-17T21:31:13.215Z,1.75
2023-01-17T21:33:40.028Z,2.00
2023-01-17T21:36:08.266Z,2.19
2023-01-17T21:38:37.938Z,2.08
2023-01-17T21:41:06.531Z,2.05
2023-01-17T21:43:33.203Z,2.13
2023-01-17T21:46:04.153Z,1.89
2023-01-17T21:48:31.010Z,2.13
2023-01-17T21:51:03.908Z,2.03
2023-01-17T21:53:30.808Z,1.92
2023-01-17T21:56:03.156Z,1.95
2023-01-17T21:58:39.928Z,2.17
2023-01-17T22:01:12.943Z,2.35
2023-01-17T22:03:42.620Z,2.81
2023-01-17T22:06:10.329Z,3.08
2023-01-17T22:08:47.104Z,2.69
2023-01-17T22:11:18.495Z,2.71
2023-01-17T22:13:45.314Z,2.26
2023-01-17T22:16:15.429Z,2.59
2023-01-17T22:18:45.561Z,2.81
2023-01-17T22:21:20.456Z,3.04
2023-01-17T22:23:48.378Z,3.08
2023-01-17T22:26:15.848Z,2.93
2023-01-17T22:28:42.553Z,2.83
2023-01-17T22:31:13.526Z,2.74
2023-01-17T22:33:41.843Z,2.81
2023-01-17T22:36:09.285Z,2.42
2023-01-17T22:38:36.124Z,3.00
2023-01-17T22:41:11.789Z,2.76
2023-01-17T22:43:51.653Z,2.52
2023-01-17T22:46:20.483Z,3.07
2023-01-17T22:48:48.446Z,3.45
2023-01-17T22:51:16.130Z,3.49
2023-01-17T22:53:47.157Z,2.99
2023-01-17T22:56:20.840Z,3.10
2023-01-17T22:58:49.200Z,3.29
2023-01-17T23:01:33.154Z,3.79
2023-01-17T23:04:04.609Z,3.64
2023-01-17T23:06:51.275Z,3.60
2023-01-17T23:09:18.269Z,3.25
2023-01-17T23:11:49.331Z,3.27
2023-01-17T23:14:17.069Z,2.93
2023-01-17T23:16:49.852Z,3.30
2023-01-17T23:19:19.880Z,3.30
2023-01-17T23:21:46.915Z,3.38
2023-01-17T23:24:13.988Z,3.99
2023-01-17T23:26:41.916Z,3.55
2023-01-17T23:29:09.751Z,2.93
2023-01-17T23:31:36.779Z,2.43
2023-01-17T23:34:03.651Z,2.08
2023-01-17T23:36:30.349Z,2.11
2023-01-17T23:38:57.084Z,1.98
2023-01-17T23:41:23.933Z,1.70
2023-01-17T23:43:54.516Z,1.72
2023-01-17T23:46:21.337Z,2.08
2023-01-17T23:48:48.076Z,2.08
2023-01-17T23:51:14.800Z,1.58
2023-01-17T23:53:42.363Z,1.54
2023-01-17T23:56:23.620Z,1.44
2023-01-17T23:58:51.507Z,1.14
